• Join FlightAware (Why Join?)
  • Login
  • US Flag 
12:39PM EDT


 

Airport Tracker/Info


-or-


 

Live Flight TrackerFlight Track Log ✈ N45NS ✈ 04-Mar-2014 ✈ KBJJ - KTRI

Flight Track Log - Related Links

Times and Time Zones

All times are in EST time to prevent confusion due to time zone crossing. See the N45NS flight status page for this flight to view local times or setup timezone preferences in your user account.

Time Position Orientation Groundspeed Altitude Reporting Facility
EST Latitude Longitude Course Direction KTS MPH feet Rate Location/Type
03:59PM 40.8633 -81.9350 178° South 216 249 2,700  Level Cleveland Center
04:00PM 40.8003 -81.9328 178° South 237 273 6,400 3,420 Climbing Cleveland Center
04:01PM 40.7278 -81.9297 178° South 254 292 9,800 3,240 Climbing Cleveland Center
04:02PM 40.6464 -81.9256 178° South 282 325 13,200 3,480 Climbing Cleveland Center
04:03PM 40.5478 -81.9217 178° South 297 342 17,300 3,480 Climbing Indianapolis Center
04:04PM 40.4594 -81.9167 178° South 308 354 20,700 2,700 Climbing Indianapolis Center
04:05PM 40.3681 -81.9125 178° South 318 366 23,000 1,080 Climbing Indianapolis Center
04:06PM 40.2364 -81.9056 178° South 392 451 23,000 720 Level Indianapolis Center
04:07PM 40.1192 -81.9008 178° South 409 471 24,500 1,440 Climbing Indianapolis Center
04:08PM 40.0072 -81.8958 178° South 404 465 26,000 1,380 Climbing Indianapolis Center
04:09PM 39.8889 -81.8978 181° South 416 479 27,400 960 Climbing Indianapolis Center
04:10PM 39.7756 -81.9178 188° South 414 476 28,000 240 Climbing Indianapolis Center
04:12PM 39.6514 -81.9372 187° South 419 482 28,000 420 Level Indianapolis Center
04:13PM 39.5325 -81.9558 187° South 426 490 28,900 960 Climbing Indianapolis Center
04:14PM 39.4228 -81.9736 187° South 409 471 30,000 480 Climbing Indianapolis Center
04:15PM 39.3131 -81.9897 186° South 401 461 30,000  Level Indianapolis Center
04:16PM 39.1828 -82.0100 187° South 399 459 30,000  Level Indianapolis Center
04:17PM 39.0783 -82.0264 187° South 386 444 30,000  Level Indianapolis Center
04:18PM 38.9756 -82.0411 186° South 379 436 30,000  Level Indianapolis Center
04:19PM 38.8728 -82.0556 186° South 378 435 30,000  Level Indianapolis Center
04:20PM 38.7711 -82.0703 186° South 374 430 30,000  Level Indianapolis Center
04:21PM 38.6500 -82.0897 187° South 371 427 30,000  Level Indianapolis Center
04:22PM 38.5492 -82.1047 187° South 371 427 30,000 -240 Level Indianapolis Center
04:23PM 38.4494 -82.1200 187° South 365 420 29,600 -720 Descending Indianapolis Center
04:24PM 38.3450 -82.1356 187° South 372 428 28,600 -1,020 Descending Indianapolis Center
04:25PM 38.2344 -82.1528 187° South 392 451 27,600 -1,020 Descending Indianapolis Center
04:26PM 38.1217 -82.1689 186° South 402 463 26,600 -1,020 Descending Indianapolis Center
04:27PM 37.9919 -82.1875 186° South 405 466 25,500 -1,020 Descending Indianapolis Center
04:28PM 37.8794 -82.2039 187° South 406 467 24,500 -1,020 Descending Indianapolis Center
04:29PM 37.7689 -82.2208 187° South 405 466 23,400 -900 Descending Indianapolis Center
04:30PM 37.6378 -82.2397 187° South 405 466 22,700 -1,740 Descending Indianapolis Center
04:31PM 37.5250 -82.2567 187° South 405 466 19,900 -2,520 Descending Indianapolis Center
04:32PM 37.4114 -82.2722 186° South 408 470 17,500 -2,340 Descending Indianapolis Center
04:33PM 37.3072 -82.2875 187° South 385 443 15,100 -2,280 Descending Indianapolis Center
04:34PM 37.2086 -82.3019 187° South 364 419 12,900 -2,160 Descending Indianapolis Center
04:35PM 37.1119 -82.3156 186° South 352 405 10,700 -1,440 Descending Indianapolis Center
04:36PM 37.0117 -82.3303 187° South 317 365 10,000 -540 Descending Indianapolis Center
04:37PM 36.9283 -82.3378 184° South 303 349 9,600 -840 Descending Indianapolis Center
04:38PM 36.8475 -82.3317 177° South 294 338 8,300 -1,260 Descending Indianapolis Center
04:39PM 36.7681 -82.3267 177° South 290 334 7,000 -1,680 Descending Indianapolis Center
04:41PM 36.6919 -82.3239 178° South 281 323 4,900 -1,260 Descending Indianapolis Center
04:42PM 36.6203 -82.3194 177° South 269 310 4,400 -780 Descending Indianapolis Center
04:43PM 36.5428 -82.3325 188° South 248 285 3,300 -1,020 Descending Indianapolis Center
04:44PM 36.5067 -82.3706 220° Southwest 193 222 2,400 -720 Descending Indianapolis Center
04:45PM 36.4822 -82.4008 225° Southwest 165 190 1,900 -540 Descending Indianapolis Center